Time;durP1;ratioP1;P1;durP2;ratioP2;P2;SDS_P1;SDS_P2;PMS_P1;PMS_P2;Temp;Humidity;BMP_temperature;BMP_pressure;BME280_temperature;BME280_humidity;BME280_pressure;Samples;Min_cycle;Max_cycle;Signal;HPM_P1;HPM_P2
2021/05/07 00:01:13;;;;;;;26.48;4.10;;;12.30;97.00;;;;;;5130493;27;20081;-87
2021/05/07 00:03:40;;;;;;;15.82;2.75;;;12.30;97.10;;;;;;5118013;27;20556;-88
2021/05/07 00:06:10;;;;;;;18.25;2.35;;;12.10;95.10;;;;;;5109721;27;20395;-87
2021/05/07 00:08:38;;;;;;;19.30;2.08;;;12.10;94.10;;;;;;5147148;27;20545;-88
2021/05/07 00:11:10;;;;;;;11.80;1.75;;;12.00;94.80;;;;;;5115787;27;20055;-88
2021/05/07 00:13:37;;;;;;;18.40;2.17;;;11.90;94.50;;;;;;5129043;27;20100;-88
2021/05/07 00:16:04;;;;;;;14.60;2.15;;;12.00;95.00;;;;;;5136164;27;20102;-88
2021/05/07 00:18:30;;;;;;;13.82;1.98;;;11.90;95.50;;;;;;5145444;27;20502;-89
2021/05/07 00:20:56;;;;;;;14.60;1.65;;;11.90;95.50;;;;;;5120447;27;20024;-90
2021/05/07 00:23:22;;;;;;;13.77;1.67;;;11.80;95.10;;;;;;5138671;27;20051;-89
2021/05/07 00:25:50;;;;;;;9.07;1.70;;;11.80;95.30;;;;;;5115877;28;20468;-90
2021/05/07 00:28:17;;;;;;;19.52;2.97;;;11.80;95.50;;;;;;5138792;27;20014;-90
2021/05/07 00:30:42;;;;;;;11.50;1.77;;;11.80;95.30;;;;;;5127694;27;20024;-90
2021/05/07 00:33:09;;;;;;;12.00;1.67;;;11.70;94.70;;;;;;5133481;27;20033;-92
2021/05/07 00:35:35;;;;;;;16.35;1.73;;;11.60;94.70;;;;;;5118837;28;20015;-91
2021/05/07 00:38:01;;;;;;;15.57;2.05;;;11.60;94.80;;;;;;5120753;27;20030;-91
2021/05/07 00:40:27;;;;;;;13.68;2.10;;;11.60;94.90;;;;;;5114627;28;20495;-90
2021/05/07 00:42:53;;;;;;;10.80;1.10;;;11.60;94.60;;;;;;5123759;27;20401;-91
2021/05/07 00:45:19;;;;;;;11.10;1.30;;;11.60;94.00;;;;;;5121147;28;20011;-95
2021/05/07 00:47:53;;;;;;;9.80;1.63;;;11.60;94.40;;;;;;5122914;27;20037;-91
2021/05/07 00:50:19;;;;;;;;;;;11.60;93.90;;;;;;5113983;28;20024;-91
2021/05/07 00:52:48;;;;;;;12.25;1.30;;;11.60;94.00;;;;;;5139358;27;19917;-94
2021/05/07 00:55:14;;;;;;;6.78;1.20;;;11.50;94.00;;;;;;5121941;28;20019;-92
2021/05/07 00:57:40;;;;;;;8.85;1.92;;;11.50;94.30;;;;;;5112150;27;20095;-94
2021/05/07 01:00:10;;;;;;;6.85;1.35;;;11.50;94.20;;;;;;5126449;27;20042;-92
2021/05/07 01:02:36;;;;;;;11.43;1.10;;;11.50;94.20;;;;;;5109844;27;20052;-91
2021/05/07 01:05:03;;;;;;;11.25;1.40;;;11.50;94.00;;;;;;5122894;28;20028;-93
2021/05/07 01:07:29;;;;;;;11.00;1.42;;;11.50;94.30;;;;;;5120945;27;20192;-93
2021/05/07 01:09:55;;;;;;;8.32;1.17;;;11.50;94.30;;;;;;5120081;28;20136;-92
2021/05/07 01:12:21;;;;;;;11.00;1.52;;;11.50;94.60;;;;;;5118496;27;20073;-92
2021/05/07 01:15:08;;;;;;;12.18;1.60;;;11.50;94.40;;;;;;5125182;27;20030;-92
2021/05/07 01:17:39;;;;;;;9.02;1.23;;;11.50;94.40;;;;;;5121244;27;20034;-95
2021/05/07 01:20:25;;;;;;;9.75;1.75;;;11.50;94.70;;;;;;5121338;27;20023;-94
2021/05/07 01:22:57;;;;;;;8.65;1.13;;;11.50;95.00;;;;;;5126369;27;20041;-94
2021/05/07 01:25:31;;;;;;;11.20;2.22;;;11.40;95.20;;;;;;5104482;27;20015;-94
2021/05/07 01:28:00;;;;;;;10.55;3.00;;;11.50;95.30;;;;;;5127356;27;20054;-93
2021/05/07 01:30:31;;;;;;;7.35;1.05;;;11.50;95.50;;;;;;5127389;27;20030;-94
2021/05/07 01:32:58;;;;;;;15.65;2.88;;;11.50;94.50;;;;;;5118329;27;20400;-94
2021/05/07 01:35:26;;;;;;;10.90;1.17;;;11.40;94.70;;;;;;5103643;27;20008;-93
2021/05/07 01:37:55;;;;;;;14.02;1.30;;;11.50;94.30;;;;;;5114045;27;20030;-94
2021/05/07 01:40:26;;;;;;;10.45;1.17;;;11.60;94.30;;;;;;5134176;27;20031;-93
2021/05/07 01:42:53;;;;;;;10.48;1.33;;;11.60;94.40;;;;;;5116862;27;20019;-94
2021/05/07 01:45:26;;;;;;;8.48;1.20;;;11.60;94.40;;;;;;5109630;27;20043;-94
2021/05/07 01:47:52;;;;;;;5.47;1.05;;;11.60;94.10;;;;;;5107533;27;20028;-93
2021/05/07 01:50:21;;;;;;;5.15;1.08;;;11.70;93.80;;;;;;5104671;27;20487;-95
2021/05/07 01:55:38;;;;;;;9.98;1.60;;;11.70;93.70;;;;;;5051972;28;20114;-93
2021/05/07 01:58:06;;;;;;;8.65;1.27;;;11.70;94.20;;;;;;5038054;28;20028;-93
2021/05/07 02:00:32;;;;;;;7.05;1.38;;;11.80;94.10;;;;;;5052265;28;20039;-92
2021/05/07 02:02:59;;;;;;;8.18;1.63;;;11.80;94.20;;;;;;5043369;28;20032;-93
2021/05/07 02:05:28;;;;;;;4.60;1.30;;;11.80;94.40;;;;;;5046478;28;20084;-93
2021/05/07 02:07:54;;;;;;;6.43;1.70;;;11.70;94.20;;;;;;5041530;28;20108;-93
2021/05/07 02:10:23;;;;;;;6.05;1.52;;;11.70;94.20;;;;;;5041460;28;20044;-94
2021/05/07 02:13:00;;;;;;;8.82;1.58;;;11.60;94.00;;;;;;5044401;28;20029;-93
2021/05/07 02:15:26;;;;;;;5.88;1.88;;;11.50;93.90;;;;;;5035480;28;20086;-93
2021/05/07 02:17:53;;;;;;;6.72;1.48;;;11.50;94.10;;;;;;5034484;28;20025;-94
2021/05/07 02:20:25;;;;;;;12.98;1.85;;;11.40;94.40;;;;;;5035167;28;20480;-94
2021/05/07 02:22:52;;;;;;;9.40;1.98;;;11.40;94.50;;;;;;5034219;28;20079;-92
2021/05/07 02:25:19;;;;;;;5.60;1.58;;;11.30;94.10;;;;;;5034978;28;20366;-92
2021/05/07 02:27:46;;;;;;;9.63;1.70;;;11.30;94.40;;;;;;5034801;28;20032;-92
2021/05/07 02:30:14;;;;;;;6.40;1.45;;;11.20;94.50;;;;;;5035255;28;20021;-92
2021/05/07 02:32:39;;;;;;;9.65;1.70;;;11.20;94.50;;;;;;5045139;28;20501;-94
2021/05/07 02:35:06;;;;;;;5.43;1.45;;;11.20;94.60;;;;;;5034467;28;20063;-94
2021/05/07 02:37:32;;;;;;;9.43;1.92;;;11.20;94.60;;;;;;5034348;28;20037;-91
2021/05/07 02:39:57;;;;;;;8.60;1.92;;;11.10;94.40;;;;;;5034561;28;20075;-92
2021/05/07 02:42:23;;;;;;;7.15;1.77;;;11.10;94.60;;;;;;5034390;28;20029;-95
2021/05/07 02:44:49;;;;;;;9.40;1.73;;;11.00;94.80;;;;;;5035022;28;20591;-93
2021/05/07 02:47:15;;;;;;;5.28;1.65;;;10.90;94.70;;;;;;5034076;28;20134;-93
2021/05/07 02:49:40;;;;;;;8.23;1.73;;;10.90;94.90;;;;;;5052644;28;20029;-92
2021/05/07 02:52:06;;;;;;;5.63;1.75;;;10.90;95.10;;;;;;5034210;28;20041;-93
2021/05/07 02:54:33;;;;;;;5.80;1.70;;;10.80;94.90;;;;;;5018447;28;20064;-95
2021/05/07 02:57:01;;;;;;;7.05;1.65;;;10.80;95.10;;;;;;5011190;28;20021;-94
2021/05/07 02:59:27;;;;;;;7.10;1.70;;;10.70;94.90;;;;;;5011457;28;20033;-93
2021/05/07 03:01:54;;;;;;;6.63;1.95;;;10.70;96.00;;;;;;5023076;28;20026;-95
2021/05/07 03:04:20;;;;;;;5.50;1.50;;;10.70;95.70;;;;;;5011581;28;20034;-92
2021/05/07 03:06:49;;;;;;;6.03;1.67;;;10.70;95.40;;;;;;5010932;28;20025;-93
2021/05/07 03:09:16;;;;;;;2.78;1.77;;;10.80;95.60;;;;;;5010819;28;20498;-95
2021/05/07 03:11:42;;;;;;;5.15;1.77;;;10.80;95.80;;;;;;5010742;28;20093;-93
2021/05/07 03:14:09;;;;;;;6.35;2.08;;;10.70;95.20;;;;;;5011861;28;20021;-93
2021/05/07 03:16:34;;;;;;;4.88;1.50;;;10.80;95.10;;;;;;5012163;28;20113;-93
2021/05/07 03:19:00;;;;;;;5.20;1.58;;;10.70;94.90;;;;;;5010241;28;20118;-93
2021/05/07 03:21:26;;;;;;;4.05;1.45;;;10.70;95.00;;;;;;5011045;28;20026;-92
2021/05/07 03:23:52;;;;;;;4.40;1.58;;;10.60;94.90;;;;;;5010256;28;20232;-92
2021/05/07 03:26:18;;;;;;;4.63;1.90;;;10.60;95.00;;;;;;5011290;28;20219;-96
2021/05/07 03:28:44;;;;;;;6.20;1.80;;;10.60;95.30;;;;;;5010190;28;20120;-96
2021/05/07 03:31:10;;;;;;;2.88;1.60;;;10.60;95.30;;;;;;5011369;28;20568;-95
2021/05/07 03:33:36;;;;;;;8.05;1.92;;;10.60;95.10;;;;;;5010296;28;20040;-95
2021/05/07 03:36:03;;;;;;;6.53;1.70;;;10.60;95.10;;;;;;5010955;28;20018;-96
2021/05/07 03:38:29;;;;;;;5.25;1.70;;;10.50;95.30;;;;;;5010153;28;20038;-94
2021/05/07 03:40:55;;;;;;;7.78;2.15;;;10.50;95.10;;;;;;5010694;28;20255;-95
2021/05/07 03:43:21;;;;;;;5.45;1.70;;;10.60;95.10;;;;;;5010065;28;20209;-93
2021/05/07 03:45:47;;;;;;;6.93;1.90;;;10.50;94.60;;;;;;5010333;28;20025;-93
2021/05/07 03:48:17;;;;;;;4.78;1.95;;;10.40;95.00;;;;;;5010228;28;20033;-95
2021/05/07 03:50:43;;;;;;;5.40;2.05;;;10.40;95.10;;;;;;5011126;28;20022;-96
2021/05/07 03:53:11;;;;;;;6.95;2.22;;;10.40;95.00;;;;;;5012511;28;20034;-96
2021/05/07 03:55:37;;;;;;;6.45;1.73;;;10.40;95.50;;;;;;5034317;28;20025;-95
2021/05/07 03:58:02;;;;;;;3.28;2.10;;;10.30;95.60;;;;;;5042237;28;20043;-96
2021/05/07 04:00:28;;;;;;;4.53;2.10;;;10.30;95.60;;;;;;5033417;28;20025;-96
2021/05/07 04:02:54;;;;;;;3.70;1.88;;;10.30;95.50;;;;;;5041909;28;20025;-96
2021/05/07 04:05:20;;;;;;;6.13;1.80;;;10.30;95.00;;;;;;5034631;28;20028;-96
2021/05/07 04:07:48;;;;;;;4.03;2.03;;;10.30;94.80;;;;;;5032399;28;20455;-95
2021/05/07 04:10:19;;;;;;;4.55;1.60;;;10.20;95.30;;;;;;5032904;28;20025;-95
2021/05/07 04:15:16;;;;;;;5.97;2.28;;;10.20;94.70;;;;;;5050027;28;20083;-92
2021/05/07 04:17:42;;;;;;;3.90;1.85;;;10.20;94.80;;;;;;5031947;28;20025;-93
2021/05/07 04:20:09;;;;;;;6.55;2.03;;;10.20;94.70;;;;;;5034242;28;20044;-94
2021/05/07 04:22:36;;;;;;;7.68;2.40;;;10.20;94.70;;;;;;5030868;28;20063;-95
2021/05/07 04:25:09;;;;;;;3.35;1.98;;;10.20;94.70;;;;;;5031329;28;20029;-93
2021/05/07 04:27:34;;;;;;;10.07;2.50;;;10.10;94.80;;;;;;5031344;28;20032;-95
2021/05/07 04:30:01;;;;;;;6.03;2.13;;;10.10;94.80;;;;;;5031753;28;20021;-94
2021/05/07 04:32:27;;;;;;;3.70;2.10;;;10.10;94.70;;;;;;5031100;28;20492;-94
2021/05/07 04:34:53;;;;;;;6.15;2.15;;;10.10;94.70;;;;;;5031856;28;20122;-95
2021/05/07 04:37:18;;;;;;;4.72;2.72;;;10.10;95.00;;;;;;5049137;28;20137;-94
2021/05/07 04:39:44;;;;;;;3.53;2.13;;;10.00;95.20;;;;;;5032749;28;20079;-95
2021/05/07 04:42:10;;;;;;;3.00;2.20;;;10.00;95.30;;;;;;5048895;28;20098;-93
2021/05/07 04:44:35;;;;;;;6.45;3.00;;;10.00;95.20;;;;;;5031768;28;20032;-94
2021/05/07 04:47:01;;;;;;;9.65;2.20;;;9.90;95.40;;;;;;5047877;28;20021;-94
2021/05/07 04:49:27;;;;;;;4.75;2.60;;;9.90;95.20;;;;;;5031801;28;20033;-93
2021/05/07 04:51:53;;;;;;;3.83;2.13;;;10.00;95.10;;;;;;5031877;28;20079;-92
2021/05/07 04:54:19;;;;;;;4.22;2.17;;;10.00;95.60;;;;;;5041431;28;20045;-92
2021/05/07 04:56:45;;;;;;;5.05;2.20;;;10.00;95.30;;;;;;5047702;28;20036;-92
2021/05/07 04:59:11;;;;;;;4.43;2.58;;;9.90;95.10;;;;;;5035540;28;20440;-92
2021/05/07 05:01:37;;;;;;;5.25;2.80;;;10.00;95.20;;;;;;5035684;28;20025;-93
2021/05/07 05:04:03;;;;;;;5.88;2.85;;;10.00;95.10;;;;;;5035549;28;20075;-93
2021/05/07 05:06:28;;;;;;;4.45;2.67;;;9.90;94.90;;;;;;5035792;28;20448;-93
2021/05/07 05:08:54;;;;;;;4.32;2.25;;;9.90;95.40;;;;;;5052502;28;20543;-95
2021/05/07 05:11:20;;;;;;;5.55;2.80;;;9.90;95.30;;;;;;5036803;28;20028;-92
2021/05/07 05:13:46;;;;;;;5.05;2.97;;;9.90;95.20;;;;;;5034477;28;20370;-94
2021/05/07 05:16:11;;;;;;;4.03;2.42;;;10.00;95.20;;;;;;5034628;28;20546;-95
2021/05/07 05:18:38;;;;;;;5.32;3.10;;;9.90;95.00;;;;;;5034223;28;20260;-92
2021/05/07 05:21:06;;;;;;;6.85;3.33;;;9.90;95.40;;;;;;5034545;28;20029;-93
2021/05/07 05:23:32;;;;;;;4.85;3.15;;;9.90;95.30;;;;;;5051509;28;20033;-94
2021/05/07 05:25:59;;;;;;;5.07;2.92;;;10.00;95.10;;;;;;5034355;28;20033;-92
2021/05/07 05:28:25;;;;;;;5.40;2.83;;;10.00;95.10;;;;;;5052936;28;20025;-92
2021/05/07 05:30:51;;;;;;;4.53;2.70;;;10.00;94.90;;;;;;5035451;28;20025;-93
2021/05/07 05:33:17;;;;;;;9.73;3.38;;;10.00;95.00;;;;;;5035018;28;20029;-93
2021/05/07 05:35:45;;;;;;;5.93;3.10;;;10.00;95.20;;;;;;5034886;28;20036;-95
2021/05/07 05:38:12;;;;;;;5.47;3.40;;;10.00;95.00;;;;;;5052662;28;20052;-94
2021/05/07 05:40:39;;;;;;;4.78;3.03;;;10.00;95.10;;;;;;5035093;28;20037;-92
2021/05/07 05:43:05;;;;;;;4.50;2.90;;;10.00;95.30;;;;;;5052423;28;20071;-93
2021/05/07 05:45:30;;;;;;;4.20;2.90;;;10.00;95.10;;;;;;5053012;28;20053;-93
2021/05/07 05:48:07;;;;;;;4.55;3.00;;;10.10;95.40;;;;;;5027805;28;20485;-92
2021/05/07 05:50:37;;;;;;;6.30;3.47;;;10.10;94.70;;;;;;5035772;28;20116;-95
2021/05/07 05:53:04;;;;;;;5.97;3.42;;;10.20;94.80;;;;;;5033951;28;20366;-94
2021/05/07 05:55:29;;;;;;;5.07;3.67;;;10.20;94.60;;;;;;5035174;28;20049;-92
2021/05/07 05:57:55;;;;;;;5.88;4.35;;;10.30;94.60;;;;;;5033961;28;20025;-92
2021/05/07 06:00:22;;;;;;;7.30;4.53;;;10.40;94.60;;;;;;5034885;28;20048;-92
2021/05/07 06:02:48;;;;;;;6.55;3.83;;;10.40;94.60;;;;;;5034016;28;20036;-92
2021/05/07 06:05:14;;;;;;;5.80;3.63;;;10.50;94.70;;;;;;5034696;28;20033;-95
2021/05/07 06:07:41;;;;;;;5.50;3.35;;;10.50;94.70;;;;;;5033958;28;20052;-92
2021/05/07 06:10:10;;;;;;;5.03;2.70;;;10.60;93.90;;;;;;5051568;28;20507;-93
2021/05/07 06:12:36;;;;;;;5.55;3.67;;;10.60;94.00;;;;;;5034516;28;20021;-92
2021/05/07 06:15:03;;;;;;;6.63;3.45;;;10.70;93.80;;;;;;5034718;28;20482;-94
2021/05/07 06:17:30;;;;;;;6.18;3.75;;;10.70;93.90;;;;;;5044375;28;20543;-94
2021/05/07 06:19:57;;;;;;;4.38;3.10;;;10.80;93.20;;;;;;5034706;28;20086;-93
2021/05/07 06:22:24;;;;;;;3.97;2.92;;;10.80;93.00;;;;;;5034071;28;20025;-96
2021/05/07 06:24:50;;;;;;;7.75;3.20;;;10.80;93.50;;;;;;5034539;28;20037;-93
2021/05/07 06:27:16;;;;;;;6.20;2.70;;;10.90;93.20;;;;;;5034129;28;20047;-92
2021/05/07 06:29:41;;;;;;;4.75;3.00;;;11.00;92.30;;;;;;5038938;28;20125;-92
2021/05/07 06:32:07;;;;;;;5.45;3.17;;;11.00;92.50;;;;;;5033467;28;20017;-92
2021/05/07 06:34:33;;;;;;;9.13;3.75;;;11.00;92.60;;;;;;5037928;28;20028;-95
2021/05/07 06:37:00;;;;;;;3.60;3.20;;;11.10;93.00;;;;;;5051603;28;20029;-92
2021/05/07 06:39:29;;;;;;;7.35;3.33;;;11.00;92.60;;;;;;5052110;28;20025;-96
2021/05/07 06:41:56;;;;;;;6.63;3.72;;;11.10;92.90;;;;;;5033851;28;20477;-94
2021/05/07 06:44:22;;;;;;;4.88;3.40;;;11.20;92.90;;;;;;5034362;28;20041;-92
2021/05/07 06:46:47;;;;;;;12.48;3.38;;;11.30;92.50;;;;;;5037728;28;20489;-93
2021/05/07 06:49:13;;;;;;;6.50;3.70;;;11.40;92.70;;;;;;5033557;28;20112;-93
2021/05/07 06:51:39;;;;;;;3.90;3.20;;;11.50;92.40;;;;;;5033945;28;20025;-93
2021/05/07 06:54:06;;;;;;;4.38;2.90;;;11.60;92.20;;;;;;5035657;28;20588;-94
2021/05/07 06:56:32;;;;;;;5.95;3.38;;;11.70;91.00;;;;;;5051621;28;20108;-96
2021/05/07 06:58:57;;;;;;;7.80;3.10;;;11.80;91.10;;;;;;5033578;28;20141;-95
2021/05/07 07:01:23;;;;;;;4.50;3.20;;;11.90;90.60;;;;;;5033865;28;20021;-92
2021/05/07 07:03:49;;;;;;;6.10;3.13;;;12.00;91.00;;;;;;5051398;28;20037;-93
2021/05/07 07:06:15;;;;;;;4.93;2.95;;;12.20;91.10;;;;;;5033715;28;20021;-90
2021/05/07 07:08:41;;;;;;;5.38;3.15;;;12.30;90.40;;;;;;5050968;28;20037;-92
2021/05/07 07:11:06;;;;;;;7.00;3.20;;;12.40;90.20;;;;;;5033766;28;20048;-91
2021/05/07 07:13:32;;;;;;;5.15;3.00;;;12.50;90.10;;;;;;5032883;28;20063;-92
2021/05/07 07:15:58;;;;;;;4.40;3.00;;;12.40;88.60;;;;;;5033531;28;20108;-90
2021/05/07 07:18:23;;;;;;;5.30;2.80;;;12.40;89.70;;;;;;5050912;28;20025;-90
2021/05/07 07:20:49;;;;;;;3.78;2.63;;;12.50;88.80;;;;;;5038506;28;20032;-92
2021/05/07 07:23:16;;;;;;;7.28;3.42;;;12.60;88.60;;;;;;5050548;28;20044;-92
2021/05/07 07:25:43;;;;;;;4.68;2.90;;;12.70;90.00;;;;;;5041549;28;20494;-96
2021/05/07 07:28:08;;;;;;;6.63;2.80;;;12.80;89.40;;;;;;5039080;28;20036;-92
2021/05/07 07:30:35;;;;;;;6.13;2.80;;;12.90;87.90;;;;;;5033014;28;20033;-95
2021/05/07 07:33:01;;;;;;;5.43;2.60;;;13.00;87.70;;;;;;5033006;28;20033;-92
2021/05/07 07:35:27;;;;;;;4.95;2.60;;;12.90;87.10;;;;;;5033213;28;20029;-94
2021/05/07 07:37:53;;;;;;;4.97;2.78;;;13.00;86.90;;;;;;5050441;28;20021;-92
2021/05/07 07:40:19;;;;;;;5.47;2.80;;;13.20;87.70;;;;;;5038704;28;20036;-95
2021/05/07 07:42:45;;;;;;;4.55;3.03;;;13.20;84.70;;;;;;5034602;28;20036;-93
2021/05/07 07:45:12;;;;;;;4.47;2.55;;;12.90;84.70;;;;;;5033199;28;20037;-93
2021/05/07 07:47:38;;;;;;;3.97;2.65;;;13.00;87.40;;;;;;5032279;28;20029;-93
2021/05/07 07:50:05;;;;;;;5.45;2.50;;;13.20;87.70;;;;;;5032795;28;20024;-93
2021/05/07 07:52:32;;;;;;;6.10;2.47;;;13.30;85.60;;;;;;5050143;28;20044;-93
2021/05/07 07:55:05;;;;;;;5.30;2.25;;;13.50;85.40;;;;;;5050417;28;20043;-93
2021/05/07 07:57:31;;;;;;;4.07;2.20;;;13.60;83.60;;;;;;5031911;28;20029;-92
2021/05/07 07:59:57;;;;;;;3.45;1.92;;;13.70;82.70;;;;;;5032688;28;20017;-91
2021/05/07 08:02:25;;;;;;;4.50;2.28;;;13.80;82.20;;;;;;5032327;28;20033;-93
2021/05/07 08:04:51;;;;;;;2.90;2.10;;;13.80;81.60;;;;;;5032694;28;20551;-93
2021/05/07 08:07:17;;;;;;;5.85;2.00;;;13.70;82.50;;;;;;5032253;28;20025;-93
2021/05/07 08:09:43;;;;;;;8.30;1.85;;;13.70;80.40;;;;;;5032406;28;20029;-90
2021/05/07 08:12:09;;;;;;;4.65;1.33;;;13.70;79.90;;;;;;5031905;28;20537;-90
2021/05/07 08:14:35;;;;;;;3.85;1.58;;;13.70;78.20;;;;;;5043998;28;20069;-92
2021/05/07 08:17:00;;;;;;;3.88;1.90;;;13.70;81.90;;;;;;5034170;28;20041;-90
2021/05/07 08:19:26;;;;;;;3.40;2.50;;;13.80;80.50;;;;;;5031979;28;20028;-93
2021/05/07 08:21:52;;;;;;;4.35;2.13;;;13.90;82.00;;;;;;5031762;28;20029;-93
2021/05/07 08:24:18;;;;;;;3.15;2.22;;;14.00;82.50;;;;;;5032010;28;20037;-93
2021/05/07 08:26:44;;;;;;;2.67;1.83;;;14.10;80.70;;;;;;5049860;28;20390;-94
2021/05/07 08:29:10;;;;;;;2.05;1.50;;;14.30;81.60;;;;;;5032228;28;20017;-96
2021/05/07 08:31:35;;;;;;;2.25;1.50;;;14.40;78.60;;;;;;5034658;28;20044;-95
2021/05/07 08:34:02;;;;;;;4.45;2.00;;;14.50;77.90;;;;;;5053401;28;20021;-92
2021/05/07 08:36:28;;;;;;;6.28;2.45;;;14.60;78.00;;;;;;5036402;28;20024;-92
2021/05/07 08:38:54;;;;;;;2.60;1.58;;;14.70;80.70;;;;;;5035329;28;20497;-89
2021/05/07 08:41:19;;;;;;;1.63;1.20;;;14.70;76.40;;;;;;5035990;28;20017;-91
2021/05/07 08:43:46;;;;;;;1.95;1.38;;;14.60;74.60;;;;;;5053258;28;20041;-93
2021/05/07 08:46:12;;;;;;;3.45;1.20;;;14.80;75.80;;;;;;5035717;28;20560;-92
2021/05/07 08:48:39;;;;;;;3.00;1.40;;;14.70;73.10;;;;;;5035348;28;20059;-92
2021/05/07 08:51:05;;;;;;;2.05;1.20;;;14.50;72.20;;;;;;5053557;28;20079;-92
2021/05/07 08:53:31;;;;;;;3.17;2.13;;;14.60;73.20;;;;;;5053102;28;20048;-90
2021/05/07 08:56:05;;;;;;;3.38;2.13;;;14.60;76.30;;;;;;5035642;28;20523;-90
2021/05/07 08:58:31;;;;;;;4.90;2.03;;;14.70;76.60;;;;;;5052983;28;20485;-89
2021/05/07 09:00:58;;;;;;;3.40;1.80;;;14.80;76.40;;;;;;5035876;28;20501;-89
2021/05/07 09:03:24;;;;;;;3.88;1.90;;;14.90;77.70;;;;;;5034839;28;20040;-89
2021/05/07 09:05:50;;;;;;;2.47;1.52;;;15.10;76.40;;;;;;5035505;28;20025;-90
2021/05/07 09:08:16;;;;;;;1.88;1.48;;;15.10;74.00;;;;;;5052558;28;20032;-89
2021/05/07 09:10:45;;;;;;;3.88;1.65;;;15.10;70.70;;;;;;5053273;28;20390;-91
2021/05/07 09:13:12;;;;;;;2.67;1.52;;;14.90;69.20;;;;;;5052704;28;20258;-91
2021/05/07 09:15:46;;;;;;;1.75;1.35;;;14.60;70.40;;;;;;5053047;28;20025;-92
2021/05/07 09:18:13;;;;;;;2.33;1.65;;;14.60;72.20;;;;;;5052533;28;20047;-91
2021/05/07 09:20:48;;;;;;;5.18;1.55;;;14.60;71.10;;;;;;5035312;28;20036;-91
2021/05/07 09:23:15;;;;;;;2.58;1.52;;;14.60;73.30;;;;;;5036558;28;20074;-92
2021/05/07 09:25:46;;;;;;;2.72;1.40;;;14.50;73.20;;;;;;5034982;28;20045;-91
2021/05/07 09:28:16;;;;;;;4.35;1.30;;;14.80;74.90;;;;;;5052356;28;20025;-90
2021/05/07 09:30:44;;;;;;;4.10;1.45;;;15.00;77.40;;;;;;5053164;28;20025;-91
2021/05/07 09:33:14;;;;;;;3.10;1.05;;;15.20;73.20;;;;;;5036487;28;20049;-91
2021/05/07 09:35:41;;;;;;;2.10;0.93;;;15.10;68.70;;;;;;5052636;28;20086;-91
2021/05/07 09:38:09;;;;;;;2.70;0.80;;;15.00;68.90;;;;;;5034359;28;20031;-92
2021/05/07 09:40:37;;;;;;;2.25;1.08;;;14.80;69.80;;;;;;5034523;28;20155;-88
2021/05/07 09:43:04;;;;;;;1.50;0.98;;;14.80;71.60;;;;;;5032985;28;20382;-92
2021/05/07 09:45:30;;;;;;;3.20;1.13;;;15.00;71.40;;;;;;5052633;28;20513;-90
2021/05/07 09:47:56;;;;;;;5.00;1.25;;;15.10;72.60;;;;;;5039525;28;20036;-89
2021/05/07 09:50:39;;;;;;;2.92;1.00;;;15.40;70.10;;;;;;5034515;28;20029;-92
2021/05/07 09:53:20;;;;;;;3.95;1.10;;;15.60;67.30;;;;;;5033791;28;20021;-90
2021/05/07 09:55:51;;;;;;;3.63;1.08;;;15.50;67.20;;;;;;5052717;28;20029;-90
2021/05/07 09:58:17;;;;;;;2.72;1.25;;;15.20;68.40;;;;;;5033703;28;20119;-89
2021/05/07 10:00:43;;;;;;;2.33;0.93;;;15.10;67.80;;;;;;5034363;28;20036;-89
2021/05/07 10:03:09;;;;;;;2.38;0.85;;;14.80;68.70;;;;;;5033952;28;20028;-91
2021/05/07 10:05:36;;;;;;;0.82;0.50;;;14.90;68.80;;;;;;5052285;28;20029;-90
2021/05/07 10:08:03;;;;;;;3.78;0.88;;;15.10;68.10;;;;;;5051356;28;20092;-90
2021/05/07 10:10:38;;;;;;;11.20;2.35;;;15.20;69.80;;;;;;5052582;28;20025;-89
2021/05/07 10:13:06;;;;;;;5.47;2.25;;;15.20;69.80;;;;;;5051517;28;20032;-90
2021/05/07 10:15:37;;;;;;;2.33;1.50;;;15.10;69.90;;;;;;5052120;28;20120;-90
2021/05/07 10:18:08;;;;;;;4.15;1.90;;;15.10;69.80;;;;;;5033398;28;20039;-90
2021/05/07 10:20:41;;;;;;;3.08;0.50;;;15.10;69.80;;;;;;5052644;28;20013;-92
2021/05/07 10:23:18;;;;;;;3.53;0.55;;;15.10;66.80;;;;;;5027436;28;20110;-88
2021/05/07 10:25:56;;;;;;;2.55;0.93;;;15.30;67.10;;;;;;5038059;28;20040;-88
2021/05/07 10:28:23;;;;;;;1.50;0.40;;;15.50;66.20;;;;;;5034905;28;20509;-91
2021/05/07 10:30:49;;;;;;;1.77;0.60;;;15.50;63.50;;;;;;5034086;28;20029;-90
2021/05/07 10:33:20;;;;;;;1.35;0.47;;;15.20;64.70;;;;;;5033042;28;20029;-88
2021/05/07 10:35:55;;;;;;;1.45;0.40;;;15.00;64.00;;;;;;5051729;28;20111;-91
2021/05/07 10:38:22;;;;;;;2.30;0.30;;;14.90;64.40;;;;;;5051212;28;20021;-89
2021/05/07 10:41:11;;;;;;;1.92;0.30;;;15.00;69.70;;;;;;5051694;28;20024;-90
2021/05/07 10:43:41;;;;;;;1.23;0.40;;;15.00;66.40;;;;;;5050849;28;20579;-91
2021/05/07 10:46:23;;;;;;;2.83;0.32;;;15.20;67.00;;;;;;5051126;28;20025;-90
2021/05/07 10:48:52;;;;;;;1.98;0.47;;;15.30;63.80;;;;;;5051226;28;20032;-89
2021/05/07 10:51:18;;;;;;;2.53;0.30;;;15.40;67.30;;;;;;5049519;28;20021;-87
2021/05/07 10:53:43;;;;;;;1.42;0.47;;;15.70;66.10;;;;;;5050452;28;20072;-87
2021/05/07 10:56:24;;;;;;;1.95;0.38;;;15.80;62.70;;;;;;5050922;28;20498;-87
2021/05/07 10:58:52;;;;;;;1.00;0.30;;;16.00;65.00;;;;;;5050528;28;20037;-88
2021/05/07 11:01:21;;;;;;;4.95;1.60;;;16.10;63.80;;;;;;5029711;28;20102;-88
2021/05/07 11:04:08;;;;;;;3.08;1.33;;;16.10;62.40;;;;;;5050540;28;20116;-88
2021/05/07 11:06:46;;;;;;;3.38;1.10;;;16.20;68.40;;;;;;5048711;28;20496;-87
2021/05/07 11:09:21;;;;;;;3.33;1.65;;;16.60;65.50;;;;;;5050128;28;20040;-89
2021/05/07 11:11:49;;;;;;;3.88;1.52;;;16.60;66.20;;;;;;5050388;28;20017;-87
2021/05/07 11:14:17;;;;;;;2.22;1.40;;;16.70;64.20;;;;;;5050485;28;20029;-87
2021/05/07 11:16:45;;;;;;;4.45;1.80;;;16.90;67.70;;;;;;5050718;28;20028;-87
2021/05/07 11:19:28;;;;;;;3.75;1.55;;;16.90;64.80;;;;;;5032052;28;20398;-87
2021/05/07 11:21:55;;;;;;;3.10;1.73;;;16.90;63.30;;;;;;5050741;28;20028;-90
2021/05/07 11:24:30;;;;;;;4.10;1.40;;;16.70;62.70;;;;;;5029362;28;20033;-88
2021/05/07 11:26:56;;;;;;;4.13;1.42;;;16.60;64.60;;;;;;5028454;28;20028;-87
2021/05/07 11:29:32;;;;;;;2.28;1.02;;;16.80;68.10;;;;;;5048847;28;20016;-87
2021/05/07 11:32:15;;;;;;;3.67;0.80;;;16.90;64.90;;;;;;5049444;28;20021;-87
2021/05/07 11:34:42;;;;;;;3.08;1.33;;;17.10;64.10;;;;;;5045237;28;20025;-85
2021/05/07 11:37:08;;;;;;;2.22;1.30;;;17.20;63.60;;;;;;5031404;28;20070;-85
2021/05/07 11:39:35;;;;;;;2.78;0.90;;;17.20;63.10;;;;;;5048868;28;20040;-86
2021/05/07 11:42:04;;;;;;;1.38;0.73;;;17.50;61.40;;;;;;5049418;28;20025;-85
2021/05/07 11:44:29;;;;;;;3.80;1.15;;;17.30;61.90;;;;;;5031661;28;20175;-85
2021/05/07 11:47:07;;;;;;;4.22;1.30;;;17.60;61.10;;;;;;5031455;28;20108;-86
2021/05/07 11:49:36;;;;;;;4.95;0.82;;;17.80;61.30;;;;;;5048437;28;20104;-84
2021/05/07 11:52:02;;;;;;;5.00;0.70;;;17.60;59.60;;;;;;5049251;28;20037;-84
2021/05/07 11:54:42;;;;;;;4.57;1.10;;;17.20;60.80;;;;;;5049160;28;20045;-85
2021/05/07 11:57:08;;;;;;;2.15;0.65;;;17.10;62.80;;;;;;5049137;28;20033;-79
2021/05/07 11:59:38;;;;;;;3.13;0.90;;;17.20;62.70;;;;;;5049387;28;20021;-78
2021/05/07 12:02:07;;;;;;;3.50;0.77;;;17.10;63.80;;;;;;5049113;28;20033;-78
2021/05/07 12:04:45;;;;;;;2.63;1.00;;;17.40;62.60;;;;;;5049537;28;20040;-78
2021/05/07 12:07:26;;;;;;;4.47;0.80;;;17.20;61.30;;;;;;5048536;28;20540;-78
2021/05/07 12:09:52;;;;;;;3.15;0.80;;;17.30;61.40;;;;;;5046976;28;20025;-79
2021/05/07 12:12:18;;;;;;;4.28;1.02;;;17.30;62.60;;;;;;5056142;28;20116;-79
2021/05/07 12:14:51;;;;;;;4.10;1.25;;;17.60;60.40;;;;;;5049224;28;20529;-79
2021/05/07 12:17:18;;;;;;;4.15;1.15;;;17.50;60.40;;;;;;5048969;28;20067;-79
2021/05/07 12:19:44;;;;;;;4.05;1.38;;;17.30;62.70;;;;;;5031158;28;20030;-80
2021/05/07 12:22:20;;;;;;;2.88;0.98;;;17.10;62.60;;;;;;5049016;28;20127;-79
2021/05/07 12:24:46;;;;;;;1.67;0.63;;;17.30;63.90;;;;;;5045284;28;20029;-79
2021/05/07 12:27:12;;;;;;;3.25;0.80;;;17.40;63.60;;;;;;5048568;28;20025;-79
2021/05/07 12:29:38;;;;;;;2.50;0.95;;;17.90;60.60;;;;;;5048895;28;20094;-78
2021/05/07 12:32:04;;;;;;;4.53;1.00;;;18.20;59.80;;;;;;5048661;28;20021;-79
2021/05/07 12:34:30;;;;;;;3.53;1.27;;;18.40;59.10;;;;;;5049027;28;20142;-78
2021/05/07 12:37:01;;;;;;;5.38;0.90;;;18.10;59.60;;;;;;5048592;28;20090;-78
2021/05/07 12:39:28;;;;;;;4.47;1.35;;;17.90;60.60;;;;;;5047076;28;20100;-78
2021/05/07 12:41:55;;;;;;;3.42;1.10;;;17.60;60.40;;;;;;5048817;28;20029;-78
2021/05/07 12:44:22;;;;;;;5.03;1.27;;;17.50;63.40;;;;;;5048726;28;20507;-80
2021/05/07 12:46:48;;;;;;;5.78;1.05;;;18.00;60.00;;;;;;5048784;28;20021;-78
2021/05/07 12:49:13;;;;;;;3.58;0.68;;;17.70;63.00;;;;;;5048553;28;20112;-79
2021/05/07 12:51:39;;;;;;;2.13;0.88;;;18.30;61.40;;;;;;5049176;28;20049;-88
2021/05/07 12:54:05;;;;;;;6.97;1.75;;;18.30;59.90;;;;;;5030021;28;20206;-82